sensor_id;sensor_type;location;lat;lon;timestamp;pressure;altitude;pressure_sealevel;temperature;humidity
42125;BME280;27787;44.594;11.046;2023-02-28T00:02:40;101633.31;;;5.14;81.80
42125;BME280;27787;44.594;11.046;2023-02-28T00:05:26;101632.22;;;5.09;81.54
42125;BME280;27787;44.594;11.046;2023-02-28T00:08:10;101625.75;;;5.01;81.87
42125;BME280;27787;44.594;11.046;2023-02-28T00:10:54;101632.53;;;4.96;82.27
42125;BME280;27787;44.594;11.046;2023-02-28T00:13:44;101633.25;;;4.93;82.50
42125;BME280;27787;44.594;11.046;2023-02-28T00:16:31;101630.56;;;4.92;82.82
42125;BME280;27787;44.594;11.046;2023-02-28T00:19:15;101627.91;;;4.90;82.94
42125;BME280;27787;44.594;11.046;2023-02-28T00:21:59;101627.97;;;4.92;83.48
42125;BME280;27787;44.594;11.046;2023-02-28T00:24:44;101623.03;;;4.98;83.56
42125;BME280;27787;44.594;11.046;2023-02-28T00:27:28;101628.38;;;5.01;82.70
42125;BME280;27787;44.594;11.046;2023-02-28T00:30:18;101629.22;;;5.00;82.70
42125;BME280;27787;44.594;11.046;2023-02-28T00:33:03;101627.72;;;4.86;82.86
42125;BME280;27787;44.594;11.046;2023-02-28T00:35:47;101634.44;;;4.81;83.60
42125;BME280;27787;44.594;11.046;2023-02-28T00:38:32;101630.53;;;4.71;83.66
42125;BME280;27787;44.594;11.046;2023-02-28T00:41:18;101640.56;;;4.62;84.47
42125;BME280;27787;44.594;11.046;2023-02-28T00:44:02;101633.25;;;4.55;84.27
42125;BME280;27787;44.594;11.046;2023-02-28T00:46:49;101643.31;;;4.46;84.14
42125;BME280;27787;44.594;11.046;2023-02-28T00:49:33;101649.22;;;4.41;84.74
42125;BME280;27787;44.594;11.046;2023-02-28T00:52:17;101654.44;;;4.41;84.93
42125;BME280;27787;44.594;11.046;2023-02-28T00:55:01;101655.84;;;4.53;84.75
42125;BME280;27787;44.594;11.046;2023-02-28T00:57:46;101657.53;;;4.70;84.21
42125;BME280;27787;44.594;11.046;2023-02-28T01:00:30;101649.94;;;4.76;83.57
42125;BME280;27787;44.594;11.046;2023-02-28T01:03:17;101656.75;;;4.72;82.79
42125;BME280;27787;44.594;11.046;2023-02-28T01:06:02;101653.78;;;4.65;82.40
42125;BME280;27787;44.594;11.046;2023-02-28T01:08:47;101656.06;;;4.57;82.82
42125;BME280;27787;44.594;11.046;2023-02-28T01:11:31;101653.84;;;4.47;83.42
42125;BME280;27787;44.594;11.046;2023-02-28T01:14:16;101651.00;;;4.42;84.16
42125;BME280;27787;44.594;11.046;2023-02-28T01:17:03;101649.16;;;4.40;83.88
42125;BME280;27787;44.594;11.046;2023-02-28T01:19:49;101649.06;;;4.38;84.05
42125;BME280;27787;44.594;11.046;2023-02-28T01:22:34;101644.75;;;4.39;84.14
42125;BME280;27787;44.594;11.046;2023-02-28T01:25:18;101650.72;;;4.36;83.89
42125;BME280;27787;44.594;11.046;2023-02-28T01:28:02;101644.88;;;4.42;83.62
42125;BME280;27787;44.594;11.046;2023-02-28T01:30:50;101647.59;;;4.43;83.26
42125;BME280;27787;44.594;11.046;2023-02-28T01:33:35;101646.59;;;4.41;82.15
42125;BME280;27787;44.594;11.046;2023-02-28T01:36:22;101647.41;;;4.40;82.07
42125;BME280;27787;44.594;11.046;2023-02-28T01:39:07;101653.41;;;4.38;82.25
42125;BME280;27787;44.594;11.046;2023-02-28T01:41:51;101654.16;;;4.35;81.75
42125;BME280;27787;44.594;11.046;2023-02-28T01:44:56;101656.03;;;4.38;81.55
42125;BME280;27787;44.594;11.046;2023-02-28T01:47:43;101655.25;;;4.40;81.06
42125;BME280;27787;44.594;11.046;2023-02-28T01:50:31;101654.44;;;4.41;80.79
42125;BME280;27787;44.594;11.046;2023-02-28T01:53:23;101651.69;;;4.38;79.94
42125;BME280;27787;44.594;11.046;2023-02-28T01:56:12;101668.34;;;4.40;78.96
42125;BME280;27787;44.594;11.046;2023-02-28T01:59:06;101655.13;;;4.37;79.55
42125;BME280;27787;44.594;11.046;2023-02-28T02:01:52;101653.22;;;4.33;79.21
42125;BME280;27787;44.594;11.046;2023-02-28T02:04:38;101646.31;;;4.35;79.84
42125;BME280;27787;44.594;11.046;2023-02-28T02:07:25;101649.84;;;4.36;79.86
42125;BME280;27787;44.594;11.046;2023-02-28T02:10:19;101648.13;;;4.36;79.75
42125;BME280;27787;44.594;11.046;2023-02-28T02:13:28;101640.28;;;4.36;78.90
42125;BME280;27787;44.594;11.046;2023-02-28T02:26:00;101629.69;;;4.33;78.87
42125;BME280;27787;44.594;11.046;2023-02-28T02:39:13;101631.03;;;4.25;80.06
42125;BME280;27787;44.594;11.046;2023-02-28T02:41:52;101625.94;;;4.28;79.71
42125;BME280;27787;44.594;11.046;2023-02-28T02:44:42;101630.50;;;4.32;79.12
42125;BME280;27787;44.594;11.046;2023-02-28T02:47:30;101632.31;;;4.33;79.07
42125;BME280;27787;44.594;11.046;2023-02-28T02:50:21;101632.16;;;4.30;78.75
42125;BME280;27787;44.594;11.046;2023-02-28T02:53:08;101646.84;;;4.28;78.91
42125;BME280;27787;44.594;11.046;2023-02-28T02:55:56;101641.56;;;4.27;78.38
42125;BME280;27787;44.594;11.046;2023-02-28T02:58:43;101642.38;;;4.26;79.08
42125;BME280;27787;44.594;11.046;2023-02-28T03:01:31;101646.84;;;4.28;79.59
42125;BME280;27787;44.594;11.046;2023-02-28T03:04:20;101645.56;;;4.38;79.45
42125;BME280;27787;44.594;11.046;2023-02-28T03:07:05;101649.50;;;4.48;79.74
42125;BME280;27787;44.594;11.046;2023-02-28T03:09:54;101647.72;;;4.47;78.52
42125;BME280;27787;44.594;11.046;2023-02-28T03:12:50;101643.16;;;4.42;78.90
42125;BME280;27787;44.594;11.046;2023-02-28T03:19:26;101645.69;;;4.41;78.86
42125;BME280;27787;44.594;11.046;2023-02-28T03:25:12;101645.50;;;4.36;79.08
42125;BME280;27787;44.594;11.046;2023-02-28T03:33:35;101656.78;;;4.35;79.77
42125;BME280;27787;44.594;11.046;2023-02-28T03:36:24;101648.50;;;4.44;79.85
42125;BME280;27787;44.594;11.046;2023-02-28T03:39:15;101655.19;;;4.57;78.78
42125;BME280;27787;44.594;11.046;2023-02-28T03:42:07;101657.84;;;4.58;78.09
42125;BME280;27787;44.594;11.046;2023-02-28T03:44:54;101659.84;;;4.64;78.50
42125;BME280;27787;44.594;11.046;2023-02-28T03:47:45;101667.09;;;4.69;77.87
42125;BME280;27787;44.594;11.046;2023-02-28T03:50:43;101663.16;;;4.79;77.80
42125;BME280;27787;44.594;11.046;2023-02-28T03:53:41;101661.47;;;4.81;77.11
42125;BME280;27787;44.594;11.046;2023-02-28T03:56:34;101663.16;;;4.79;76.55
42125;BME280;27787;44.594;11.046;2023-02-28T03:59:44;101656.47;;;4.66;76.05
42125;BME280;27787;44.594;11.046;2023-02-28T04:02:30;101666.47;;;4.56;76.12
42125;BME280;27787;44.594;11.046;2023-02-28T04:05:14;101658.44;;;4.53;76.93
42125;BME280;27787;44.594;11.046;2023-02-28T04:08:07;101662.72;;;4.51;76.63
42125;BME280;27787;44.594;11.046;2023-02-28T04:10:56;101666.84;;;4.46;77.71
42125;BME280;27787;44.594;11.046;2023-02-28T04:13:42;101656.91;;;4.38;78.67
42125;BME280;27787;44.594;11.046;2023-02-28T04:16:27;101655.81;;;4.33;78.76
42125;BME280;27787;44.594;11.046;2023-02-28T04:19:12;101666.88;;;4.28;78.02
42125;BME280;27787;44.594;11.046;2023-02-28T04:21:57;101657.16;;;4.25;79.16
42125;BME280;27787;44.594;11.046;2023-02-28T04:24:41;101657.16;;;4.25;79.23
42125;BME280;27787;44.594;11.046;2023-02-28T04:27:25;101664.25;;;4.28;80.09
42125;BME280;27787;44.594;11.046;2023-02-28T04:30:10;101666.72;;;4.25;80.02
42125;BME280;27787;44.594;11.046;2023-02-28T04:32:54;101662.25;;;4.22;80.02
42125;BME280;27787;44.594;11.046;2023-02-28T04:35:38;101665.69;;;4.21;80.48
42125;BME280;27787;44.594;11.046;2023-02-28T04:38:22;101662.19;;;4.21;80.20
42125;BME280;27787;44.594;11.046;2023-02-28T04:41:06;101674.44;;;4.22;80.08
42125;BME280;27787;44.594;11.046;2023-02-28T04:43:51;101670.91;;;4.21;79.36
42125;BME280;27787;44.594;11.046;2023-02-28T04:46:36;101668.38;;;4.23;79.26
42125;BME280;27787;44.594;11.046;2023-02-28T04:49:20;101668.38;;;4.23;78.85
42125;BME280;27787;44.594;11.046;2023-02-28T04:52:04;101673.66;;;4.24;78.38
42125;BME280;27787;44.594;11.046;2023-02-28T04:54:49;101673.59;;;4.23;78.44
42125;BME280;27787;44.594;11.046;2023-02-28T04:57:33;101680.41;;;4.19;78.87
42125;BME280;27787;44.594;11.046;2023-02-28T05:00:17;101680.09;;;4.13;79.11
42125;BME280;27787;44.594;11.046;2023-02-28T05:03:02;101681.22;;;4.18;78.10
42125;BME280;27787;44.594;11.046;2023-02-28T05:05:46;101678.63;;;4.18;77.94
42125;BME280;27787;44.594;11.046;2023-02-28T05:08:30;101681.75;;;4.11;77.88
42125;BME280;27787;44.594;11.046;2023-02-28T05:11:22;101683.19;;;4.04;79.06
42125;BME280;27787;44.594;11.046;2023-02-28T05:14:13;101685.94;;;4.07;78.73
42125;BME280;27787;44.594;11.046;2023-02-28T05:16:57;101693.03;;;4.10;78.71
42125;BME280;27787;44.594;11.046;2023-02-28T05:19:41;101689.44;;;4.08;79.40
42125;BME280;27787;44.594;11.046;2023-02-28T05:22:25;101686.84;;;4.08;78.84
42125;BME280;27787;44.594;11.046;2023-02-28T05:25:18;101692.00;;;4.06;79.30
42125;BME280;27787;44.594;11.046;2023-02-28T05:28:02;101693.97;;;4.12;79.57
42125;BME280;27787;44.594;11.046;2023-02-28T05:30:47;101694.81;;;4.11;79.08
42125;BME280;27787;44.594;11.046;2023-02-28T05:33:31;101698.53;;;4.16;79.33
42125;BME280;27787;44.594;11.046;2023-02-28T05:36:15;101699.59;;;4.20;79.05
42125;BME280;27787;44.594;11.046;2023-02-28T05:39:00;101697.81;;;4.19;79.17
42125;BME280;27787;44.594;11.046;2023-02-28T05:41:44;101690.88;;;4.19;78.34
42125;BME280;27787;44.594;11.046;2023-02-28T05:44:29;101695.41;;;4.23;77.65
42125;BME280;27787;44.594;11.046;2023-02-28T05:47:13;101695.41;;;4.23;77.52
42125;BME280;27787;44.594;11.046;2023-02-28T05:49:59;101690.88;;;4.19;77.61
42125;BME280;27787;44.594;11.046;2023-02-28T05:52:44;101697.75;;;4.17;78.91
42125;BME280;27787;44.594;11.046;2023-02-28T05:55:28;101692.34;;;4.14;79.31
42125;BME280;27787;44.594;11.046;2023-02-28T05:58:12;101697.88;;;4.20;78.85
42125;BME280;27787;44.594;11.046;2023-02-28T06:01:00;101704.81;;;4.20;78.76
42125;BME280;27787;44.594;11.046;2023-02-28T06:03:45;101707.66;;;4.24;78.27
42125;BME280;27787;44.594;11.046;2023-02-28T06:06:29;101712.34;;;4.31;78.30
42125;BME280;27787;44.594;11.046;2023-02-28T06:09:18;101712.69;;;4.39;78.22
42125;BME280;27787;44.594;11.046;2023-02-28T06:12:05;101710.22;;;4.42;77.78
42125;BME280;27787;44.594;11.046;2023-02-28T06:14:49;101716.13;;;4.38;77.81
42125;BME280;27787;44.594;11.046;2023-02-28T06:17:33;101724.75;;;4.35;77.66
42125;BME280;27787;44.594;11.046;2023-02-28T06:20:17;101717.59;;;4.31;77.40
42125;BME280;27787;44.594;11.046;2023-02-28T06:23:02;101724.06;;;4.22;78.03
42125;BME280;27787;44.594;11.046;2023-02-28T06:25:46;101730.06;;;4.19;78.54
42125;BME280;27787;44.594;11.046;2023-02-28T06:28:31;101734.53;;;4.22;79.06
42125;BME280;27787;44.594;11.046;2023-02-28T06:31:17;101735.34;;;4.21;78.64
42125;BME280;27787;44.594;11.046;2023-02-28T06:34:01;101739.75;;;4.22;79.78
42125;BME280;27787;44.594;11.046;2023-02-28T06:36:46;101743.25;;;4.22;79.14
42125;BME280;27787;44.594;11.046;2023-02-28T06:39:32;101743.41;;;4.25;79.71
42125;BME280;27787;44.594;11.046;2023-02-28T06:42:16;101745.19;;;4.26;79.29
42125;BME280;27787;44.594;11.046;2023-02-28T06:45:00;101744.38;;;4.27;79.85
42125;BME280;27787;44.594;11.046;2023-02-28T06:47:47;101746.09;;;4.27;79.88
42125;BME280;27787;44.594;11.046;2023-02-28T06:50:36;101757.28;;;4.24;80.03
42125;BME280;27787;44.594;11.046;2023-02-28T06:53:21;101752.28;;;4.29;80.75
42125;BME280;27787;44.594;11.046;2023-02-28T06:56:06;101759.53;;;4.34;80.04
42125;BME280;27787;44.594;11.046;2023-02-28T06:58:52;101761.59;;;4.41;80.56
42125;BME280;27787;44.594;11.046;2023-02-28T07:01:40;101755.81;;;4.47;80.57
42125;BME280;27787;44.594;11.046;2023-02-28T07:04:24;101756.75;;;4.49;80.37
42125;BME280;27787;44.594;11.046;2023-02-28T07:07:08;101756.69;;;4.48;79.73
42125;BME280;27787;44.594;11.046;2023-02-28T07:09:52;101758.28;;;4.44;78.54
42125;BME280;27787;44.594;11.046;2023-02-28T07:12:37;101760.50;;;4.36;78.02
42125;BME280;27787;44.594;11.046;2023-02-28T07:15:21;101758.66;;;4.34;77.58
42125;BME280;27787;44.594;11.046;2023-02-28T07:18:05;101756.63;;;4.28;77.64
42125;BME280;27787;44.594;11.046;2023-02-28T07:20:51;101764.56;;;4.30;78.46
42125;BME280;27787;44.594;11.046;2023-02-28T07:23:36;101758.50;;;4.31;77.45
42125;BME280;27787;44.594;11.046;2023-02-28T07:26:25;101762.16;;;4.34;77.35
42125;BME280;27787;44.594;11.046;2023-02-28T07:29:09;101762.28;;;4.37;77.03
42125;BME280;27787;44.594;11.046;2023-02-28T07:31:55;101763.25;;;4.39;77.79
42125;BME280;27787;44.594;11.046;2023-02-28T07:34:39;101759.00;;;4.41;77.70
42125;BME280;27787;44.594;11.046;2023-02-28T07:37:24;101764.41;;;4.44;77.50
42125;BME280;27787;44.594;11.046;2023-02-28T07:40:10;101767.09;;;4.46;78.50
42125;BME280;27787;44.594;11.046;2023-02-28T07:42:59;101763.78;;;4.50;77.74
42125;BME280;27787;44.594;11.046;2023-02-28T07:45:43;101775.19;;;4.52;77.43
42125;BME280;27787;44.594;11.046;2023-02-28T07:48:26;101773.66;;;4.56;77.78
42125;BME280;27787;44.594;11.046;2023-02-28T07:51:11;101776.28;;;4.56;77.57
42125;BME280;27787;44.594;11.046;2023-02-28T07:53:55;101772.00;;;4.58;77.04
42125;BME280;27787;44.594;11.046;2023-02-28T07:56:39;101782.66;;;4.62;76.26
42125;BME280;27787;44.594;11.046;2023-02-28T07:59:24;101786.03;;;4.60;76.61
42125;BME280;27787;44.594;11.046;2023-02-28T08:02:13;101786.88;;;4.59;76.63
42125;BME280;27787;44.594;11.046;2023-02-28T08:04:57;101782.47;;;4.58;76.60
42125;BME280;27787;44.594;11.046;2023-02-28T08:07:41;101786.03;;;4.60;76.45
42125;BME280;27787;44.594;11.046;2023-02-28T08:10:25;101788.66;;;4.60;75.93
42125;BME280;27787;44.594;11.046;2023-02-28T08:13:11;101786.63;;;4.72;77.03
42125;BME280;27787;44.594;11.046;2023-02-28T08:15:56;101795.06;;;4.84;76.47
42125;BME280;27787;44.594;11.046;2023-02-28T08:18:41;101790.03;;;4.89;75.86
42125;BME280;27787;44.594;11.046;2023-02-28T08:21:25;101793.84;;;4.95;74.42
42125;BME280;27787;44.594;11.046;2023-02-28T08:24:09;101803.47;;;4.96;72.56
42125;BME280;27787;44.594;11.046;2023-02-28T08:26:53;101799.53;;;4.87;71.98
42125;BME280;27787;44.594;11.046;2023-02-28T08:29:37;101807.97;;;4.81;72.43
42125;BME280;27787;44.594;11.046;2023-02-28T08:32:24;101807.69;;;4.75;73.02
42125;BME280;27787;44.594;11.046;2023-02-28T08:35:08;101802.47;;;4.75;73.08
42125;BME280;27787;44.594;11.046;2023-02-28T08:37:55;101803.50;;;4.79;73.42
42125;BME280;27787;44.594;11.046;2023-02-28T08:40:40;101804.06;;;4.91;72.92
42125;BME280;27787;44.594;11.046;2023-02-28T08:43:25;101798.91;;;4.92;72.26
42125;BME280;27787;44.594;11.046;2023-02-28T08:46:12;101797.25;;;4.94;72.62
42125;BME280;27787;44.594;11.046;2023-02-28T08:48:57;101800.44;;;5.07;71.74
42125;BME280;27787;44.594;11.046;2023-02-28T08:51:44;101801.34;;;5.07;71.12
42125;BME280;27787;44.594;11.046;2023-02-28T08:54:28;101797.00;;;5.08;71.07
42125;BME280;27787;44.594;11.046;2023-02-28T08:57:16;101804.84;;;5.08;71.25
42125;BME280;27787;44.594;11.046;2023-02-28T09:00:00;101802.47;;;5.12;71.80
42125;BME280;27787;44.594;11.046;2023-02-28T09:02:45;101805.00;;;5.11;71.68
42125;BME280;27787;44.594;11.046;2023-02-28T09:05:29;101798.81;;;5.09;72.31
42125;BME280;27787;44.594;11.046;2023-02-28T09:08:13;101797.28;;;5.14;72.76
42125;BME280;27787;44.594;11.046;2023-02-28T09:10:58;101792.31;;;5.20;71.73
42125;BME280;27787;44.594;11.046;2023-02-28T09:13:43;101788.22;;;5.25;71.11
42125;BME280;27787;44.594;11.046;2023-02-28T09:16:27;101803.22;;;5.29;71.22
42125;BME280;27787;44.594;11.046;2023-02-28T09:19:12;101799.91;;;5.33;71.08
42125;BME280;27787;44.594;11.046;2023-02-28T09:21:57;101809.00;;;5.41;71.05
42125;BME280;27787;44.594;11.046;2023-02-28T09:24:41;101815.34;;;5.46;70.23
42125;BME280;27787;44.594;11.046;2023-02-28T09:27:25;101811.69;;;5.43;70.40
42125;BME280;27787;44.594;11.046;2023-02-28T09:30:10;101810.53;;;5.36;71.41
42125;BME280;27787;44.594;11.046;2023-02-28T09:32:54;101814.13;;;5.38;71.99
42125;BME280;27787;44.594;11.046;2023-02-28T09:35:38;101818.19;;;5.51;71.53
42125;BME280;27787;44.594;11.046;2023-02-28T09:38:23;101807.78;;;5.52;70.93
42125;BME280;27787;44.594;11.046;2023-02-28T09:41:23;101818.66;;;5.61;71.68
42125;BME280;27787;44.594;11.046;2023-02-28T09:44:16;101808.31;;;5.65;71.14
42125;BME280;27787;44.594;11.046;2023-02-28T09:47:13;101819.81;;;5.68;70.80
42125;BME280;27787;44.594;11.046;2023-02-28T09:50:03;101826.84;;;5.69;71.24
42125;BME280;27787;44.594;11.046;2023-02-28T09:52:52;101816.38;;;5.69;71.64
42125;BME280;27787;44.594;11.046;2023-02-28T09:55:42;101816.50;;;5.72;71.68
42125;BME280;27787;44.594;11.046;2023-02-28T10:01:57;101815.50;;;6.09;70.56
42125;BME280;27787;44.594;11.046;2023-02-28T10:05:16;101813.34;;;6.19;69.12
42125;BME280;27787;44.594;11.046;2023-02-28T10:10:58;101808.53;;;6.09;70.64
42125;BME280;27787;44.594;11.046;2023-02-28T10:14:03;101806.75;;;6.08;70.89
42125;BME280;27787;44.594;11.046;2023-02-28T10:16:58;101812.09;;;6.11;69.21
42125;BME280;27787;44.594;11.046;2023-02-28T10:25:27;101807.75;;;5.91;70.37
42125;BME280;27787;44.594;11.046;2023-02-28T10:28:14;101804.81;;;5.85;70.93
42125;BME280;27787;44.594;11.046;2023-02-28T10:30:59;101804.81;;;5.85;70.90
42125;BME280;27787;44.594;11.046;2023-02-28T10:33:44;101814.91;;;5.95;71.17
42125;BME280;27787;44.594;11.046;2023-02-28T10:36:29;101809.78;;;5.98;70.04
42125;BME280;27787;44.594;11.046;2023-02-28T10:42:26;101813.84;;;5.90;72.13
42125;BME280;27787;44.594;11.046;2023-02-28T10:45:14;101809.94;;;6.01;71.95
42125;BME280;27787;44.594;11.046;2023-02-28T10:48:01;101799.59;;;6.04;70.46
42125;BME280;27787;44.594;11.046;2023-02-28T10:53:33;101799.59;;;6.04;70.98
42125;BME280;27787;44.594;11.046;2023-02-28T10:56:21;101810.47;;;6.13;70.68
42125;BME280;27787;44.594;11.046;2023-02-28T11:01:59;101806.81;;;6.10;72.03
42125;BME280;27787;44.594;11.046;2023-02-28T11:04:43;101800.34;;;6.22;71.77
42125;BME280;27787;44.594;11.046;2023-02-28T11:07:27;101804.06;;;6.28;70.75
42125;BME280;27787;44.594;11.046;2023-02-28T11:10:19;101802.53;;;6.33;70.14
42125;BME280;27787;44.594;11.046;2023-02-28T11:13:05;101801.63;;;6.32;70.26
42125;BME280;27787;44.594;11.046;2023-02-28T11:15:55;101794.84;;;6.37;71.01
42125;BME280;27787;44.594;11.046;2023-02-28T11:21:36;101782.94;;;6.45;69.72
42125;BME280;27787;44.594;11.046;2023-02-28T11:24:37;101779.53;;;6.48;68.92
42125;BME280;27787;44.594;11.046;2023-02-28T11:36:30;101766.03;;;6.82;67.06
42125;BME280;27787;44.594;11.046;2023-02-28T11:39:15;101772.28;;;6.86;67.26
42125;BME280;27787;44.594;11.046;2023-02-28T11:48:12;101755.53;;;6.82;66.18
42125;BME280;27787;44.594;11.046;2023-02-28T11:51:39;101756.59;;;6.87;67.63
42125;BME280;27787;44.594;11.046;2023-02-28T12:06:33;101736.38;;;7.31;65.03
42125;BME280;27787;44.594;11.046;2023-02-28T12:12:41;101733.78;;;7.32;65.27
42125;BME280;27787;44.594;11.046;2023-02-28T12:15:59;101732.06;;;7.33;65.30
42125;BME280;27787;44.594;11.046;2023-02-28T12:21:46;101727.13;;;7.42;64.80
42125;BME280;27787;44.594;11.046;2023-02-28T12:27:43;101723.41;;;7.61;66.03
42125;BME280;27787;44.594;11.046;2023-02-28T12:30:31;101713.28;;;7.72;65.55
42125;BME280;27787;44.594;11.046;2023-02-28T12:33:17;101706.38;;;7.75;65.54
42125;BME280;27787;44.594;11.046;2023-02-28T12:36:09;101697.66;;;7.76;64.77
42125;BME280;27787;44.594;11.046;2023-02-28T12:39:08;101699.34;;;7.74;63.92
42125;BME280;27787;44.594;11.046;2023-02-28T12:41:59;101692.44;;;7.78;66.33
42125;BME280;27787;44.594;11.046;2023-02-28T12:44:55;101683.94;;;7.85;67.71
42125;BME280;27787;44.594;11.046;2023-02-28T12:47:43;101677.13;;;7.91;67.64
42125;BME280;27787;44.594;11.046;2023-02-28T12:50:29;101667.31;;;7.86;68.12
42125;BME280;27787;44.594;11.046;2023-02-28T12:56:22;101677.94;;;7.89;69.24
42125;BME280;27787;44.594;11.046;2023-02-28T13:09:33;101666.34;;;8.09;68.33
42125;BME280;27787;44.594;11.046;2023-02-28T13:11:48;101658.75;;;8.20;66.79
42125;BME280;27787;44.594;11.046;2023-02-28T13:14:37;101656.22;;;8.21;66.48
42125;BME280;27787;44.594;11.046;2023-02-28T13:17:22;101654.47;;;8.22;67.11
42125;BME280;27787;44.594;11.046;2023-02-28T13:20:28;101651.59;;;8.14;66.63
42125;BME280;27787;44.594;11.046;2023-02-28T13:29:33;101644.50;;;8.12;66.27
42125;BME280;27787;44.594;11.046;2023-02-28T13:35:12;101636.56;;;8.10;66.20
42125;BME280;27787;44.594;11.046;2023-02-28T13:38:12;101632.38;;;8.17;65.80
42125;BME280;27787;44.594;11.046;2023-02-28T13:44:18;101630.00;;;8.24;65.93
42125;BME280;27787;44.594;11.046;2023-02-28T13:49:47;101627.31;;;8.23;65.01
42125;BME280;27787;44.594;11.046;2023-02-28T13:52:33;101625.41;;;8.19;65.45
42125;BME280;27787;44.594;11.046;2023-02-28T13:58:55;101622.66;;;8.14;65.61
42125;BME280;27787;44.594;11.046;2023-02-28T14:01:57;101626.94;;;8.11;66.43
42125;BME280;27787;44.594;11.046;2023-02-28T14:04:50;101625.13;;;8.08;65.88
42125;BME280;27787;44.594;11.046;2023-02-28T14:07:45;101615.63;;;8.13;66.85
42125;BME280;27787;44.594;11.046;2023-02-28T14:10:39;101609.09;;;8.01;66.08
42125;BME280;27787;44.594;11.046;2023-02-28T14:13:46;101607.22;;;7.96;66.43
42125;BME280;27787;44.594;11.046;2023-02-28T14:16:38;101605.22;;;7.89;67.92
42125;BME280;27787;44.594;11.046;2023-02-28T14:19:29;101596.56;;;7.93;67.20
42125;BME280;27787;44.594;11.046;2023-02-28T14:25:48;101593.13;;;7.94;67.33
42125;BME280;27787;44.594;11.046;2023-02-28T14:29:01;101592.22;;;7.94;67.12
42125;BME280;27787;44.594;11.046;2023-02-28T14:38:43;101580.63;;;7.87;67.28
42125;BME280;27787;44.594;11.046;2023-02-28T14:41:37;101585.97;;;7.90;68.09
42125;BME280;27787;44.594;11.046;2023-02-28T14:44:24;101582.41;;;7.88;67.78
42125;BME280;27787;44.594;11.046;2023-02-28T14:47:14;101578.97;;;7.91;67.34
42125;BME280;27787;44.594;11.046;2023-02-28T14:50:00;101574.53;;;7.88;67.90
42125;BME280;27787;44.594;11.046;2023-02-28T14:52:46;101577.97;;;7.86;68.38
42125;BME280;27787;44.594;11.046;2023-02-28T14:55:33;101576.13;;;7.83;68.05
42125;BME280;27787;44.594;11.046;2023-02-28T14:58:27;101579.47;;;7.79;68.11
42125;BME280;27787;44.594;11.046;2023-02-28T15:01:12;101569.72;;;7.75;67.92
42125;BME280;27787;44.594;11.046;2023-02-28T15:03:58;101567.94;;;7.74;68.04
42125;BME280;27787;44.594;11.046;2023-02-28T15:06:43;101565.34;;;7.76;68.18
42125;BME280;27787;44.594;11.046;2023-02-28T15:09:27;101569.72;;;7.75;68.59
42125;BME280;27787;44.594;11.046;2023-02-28T15:12:15;101565.34;;;7.76;69.04
42125;BME280;27787;44.594;11.046;2023-02-28T15:14:59;101564.44;;;7.74;68.77
42125;BME280;27787;44.594;11.046;2023-02-28T15:17:47;101568.84;;;7.75;69.11
42125;BME280;27787;44.594;11.046;2023-02-28T15:20:35;101556.44;;;7.71;68.72
42125;BME280;27787;44.594;11.046;2023-02-28T15:23:34;101558.03;;;7.65;69.01
42125;BME280;27787;44.594;11.046;2023-02-28T15:26:27;101562.47;;;7.68;69.13
42125;BME280;27787;44.594;11.046;2023-02-28T15:29:15;101562.47;;;7.68;69.50
42125;BME280;27787;44.594;11.046;2023-02-28T15:32:04;101544.88;;;7.65;69.33
42125;BME280;27787;44.594;11.046;2023-02-28T15:34:49;101546.78;;;7.69;69.69
42125;BME280;27787;44.594;11.046;2023-02-28T15:37:39;101551.25;;;7.72;69.60
42125;BME280;27787;44.594;11.046;2023-02-28T15:40:28;101547.78;;;7.73;69.92
42125;BME280;27787;44.594;11.046;2023-02-28T15:43:33;101551.25;;;7.72;68.57
42125;BME280;27787;44.594;11.046;2023-02-28T15:46:19;101545.91;;;7.69;69.24
42125;BME280;27787;44.594;11.046;2023-02-28T15:49:03;101548.91;;;7.54;68.64
42125;BME280;27787;44.594;11.046;2023-02-28T15:51:50;101540.97;;;7.53;69.21
42125;BME280;27787;44.594;11.046;2023-02-28T15:54:35;101535.66;;;7.51;69.56
42125;BME280;27787;44.594;11.046;2023-02-28T15:57:25;101531.31;;;7.52;69.48
42125;BME280;27787;44.594;11.046;2023-02-28T16:00:13;101528.72;;;7.53;69.85
42125;BME280;27787;44.594;11.046;2023-02-28T16:02:58;101521.84;;;7.57;70.25
42125;BME280;27787;44.594;11.046;2023-02-28T16:05:43;101529.56;;;7.52;70.42
42125;BME280;27787;44.594;11.046;2023-02-28T16:08:27;101531.25;;;7.50;70.49
42125;BME280;27787;44.594;11.046;2023-02-28T16:11:11;101530.41;;;7.51;70.25
42125;BME280;27787;44.594;11.046;2023-02-28T16:13:56;101531.97;;;7.45;70.38
42125;BME280;27787;44.594;11.046;2023-02-28T16:16:47;101531.84;;;7.42;70.64
42125;BME280;27787;44.594;11.046;2023-02-28T16:19:32;101524.69;;;7.36;70.87
42125;BME280;27787;44.594;11.046;2023-02-28T16:22:16;101520.19;;;7.32;71.35
42125;BME280;27787;44.594;11.046;2023-02-28T16:25:00;101521.78;;;7.28;71.15
42125;BME280;27787;44.594;11.046;2023-02-28T16:27:50;101525.91;;;7.20;71.72
42125;BME280;27787;44.594;11.046;2023-02-28T16:30:35;101531.06;;;7.17;71.62
42125;BME280;27787;44.594;11.046;2023-02-28T16:33:19;101524.66;;;7.09;71.68
42125;BME280;27787;44.594;11.046;2023-02-28T16:36:03;101533.34;;;7.06;72.25
42125;BME280;27787;44.594;11.046;2023-02-28T16:38:47;101529.97;;;7.10;72.73
42125;BME280;27787;44.594;11.046;2023-02-28T16:41:33;101532.53;;;7.09;72.98
42125;BME280;27787;44.594;11.046;2023-02-28T16:44:36;101538.94;;;7.17;72.34
42125;BME280;27787;44.594;11.046;2023-02-28T16:47:21;101535.47;;;7.18;71.92
42125;BME280;27787;44.594;11.046;2023-02-28T16:50:16;101532.91;;;7.20;71.91
42125;BME280;27787;44.594;11.046;2023-02-28T16:53:01;101535.56;;;7.21;72.20